Latest Weather Observations for Troughton Island

IDD60801

Issued at 11:01 am CST Tuesday 2 March 2021 (issued every 10 minutes, with the page automatically refreshed every 10 minutes)

About weather observations | Map of weather stations | Latest weather observations for NT | Other Formats
Station Details ID: 001007 Name: TROUGHTON ISLAND Lat: -13.75 Lon: 126.15 Height: 6.0 m
Data from the previous 72 hours. | See also: Recent months at Troughton Island
Date/Time
CST
Temp
°C
App
Temp
°C
Dew
Point
°C
Rel
Hum
%
Delta-T
°C
Wind Press
QNH
hPa
Press
MSL
hPa
Rain since
9am
mm
Dir  Spd
km/h
Gust
km/h
Spd
kts
Gust
kts
02/11:00am 30.4 35.2 26.3 79 2.9 SSW 13 17 7 9 1010.7 1010.6 0.0
02/10:30am 30.0 35.1 26.2 80 2.7 S 11 17 6 9 1010.9 1010.8 0.0
02/10:00am 29.6 33.3 25.8 80 2.7 SW 17 19 9 10 1010.7 1010.6 0.0
02/09:30am 29.3 32.8 25.5 80 2.7 SW 17 20 9 11 1010.4 1010.3 0.0
02/09:00am 29.0 32.1 25.4 81 2.5 SW 19 22 10 12 1010.1 1010.0 0.0
02/08:30am 28.5 30.6 24.7 80 2.7 SW 22 26 12 14 1009.7 1009.6 0.0
02/08:00am 28.7 30.8 24.7 79 2.8 WSW 22 28 12 15 1009.5 1009.4 0.0
02/07:30am 28.5 30.6 24.7 80 2.7 SW 22 28 12 15 1009.2 1009.1 0.0
02/07:00am 28.5 30.6 25.3 83 2.2 WSW 24 30 13 16 1009.0 1008.9 0.0
02/06:30am 28.5 31.0 25.3 83 2.3 SW 22 28 12 15 1008.8 1008.7 0.0
02/06:00am 28.6 31.3 25.6 84 2.1 WSW 22 28 12 15 1008.7 1008.6 0.0
02/05:30am 28.7 30.5 25.5 83 2.3 WSW 26 30 14 16 1008.8 1008.7 0.0
02/05:00am 28.7 30.9 25.5 83 2.3 WSW 24 30 13 16 1008.9 1008.8 0.0
02/04:30am 28.8 31.5 25.6 83 2.3 WSW 22 24 12 13 1009.1 1009.0 0.0
02/04:00am 28.7 31.8 25.7 84 2.1 WSW 20 24 11 13 1009.5 1009.4 0.0
02/03:30am 28.8 31.7 26.0 85 2.0 W 22 28 12 15 1009.7 1009.6 0.0
02/03:00am 28.9 32.3 26.1 85 2.0 WSW 20 26 11 14 1010.0 1009.9 0.0
02/02:30am 28.9 32.2 25.7 83 2.3 WSW 19 22 10 12 1010.1 1010.0 0.0
02/02:00am 28.9 31.9 25.3 81 2.5 W 19 22 10 12 1010.3 1010.2 0.0
02/01:30am 28.9 32.7 25.9 84 2.1 WNW 17 20 9 11 1010.5 1010.4 0.0
02/01:00am 28.9 32.5 26.1 85 2.0 WNW 19 20 10 11 1010.7 1010.6 0.0
02/12:30am 29.1 32.3 25.9 83 2.3 WNW 20 24 11 13 1011.0 1010.9 0.0
02/12:00am 29.0 32.4 25.8 83 2.3 W 19 20 10 11 1011.3 1011.2 0.0
 
Date/Time
CST
Temp
°C
App
Temp
°C
Dew
Point
°C
Rel
Hum
%
Delta-T
°C
Wind Press
QNH
hPa
Press
MSL
hPa
Rain since
9am
mm
Dir  Spd
km/h
Gust
km/h
Spd
kts
Gust
kts
01/11:30pm 29.0 32.9 26.0 84 2.1 W 17 20 9 11 1011.0 1010.9 0.0
01/11:00pm 29.0 33.0 26.2 85 2.0 NW 17 22 9 12 1010.6 1010.5 0.0
01/10:30pm 29.0 32.6 26.2 85 2.0 NNW 19 24 10 13 1010.3 1010.2 0.0
01/10:00pm 29.0 32.0 26.2 85 2.0 NNW 22 28 12 15 1010.1 1010.0 0.0
01/09:30pm 29.1 32.3 26.5 86 1.9 NNW 22 26 12 14 1009.8 1009.7 0.0
01/09:00pm 28.9 32.1 26.5 87 1.7 NNW 22 28 12 15 1009.5 1009.4 0.0
01/08:30pm 29.0 31.7 25.6 82 2.4 NNW 22 26 12 14 1009.3 1009.2 0.0
01/08:00pm 28.9 31.5 26.1 85 2.0 NNW 24 28 13 15 1008.8 1008.7 0.0
01/07:30pm 29.0 32.8 26.4 86 1.9 NNW 19 24 10 13 1008.3 1008.2 0.0
01/07:00pm 29.5 33.2 26.3 83 2.3 NNW 19 24 10 13 1007.9 1007.8 0.0
01/06:30pm 29.4 33.0 26.4 84 2.1 NW 20 26 11 14 1007.7 1007.6 0.0
01/06:00pm 30.1 34.2 26.9 83 2.3 NW 19 24 10 13 1007.5 1007.4 0.0
01/05:30pm 29.9 33.7 26.7 83 2.3 NW 20 26 11 14 1007.6 1007.5 0.0
01/05:00pm 30.3 34.4 26.9 82 2.4 NW 19 24 10 13 1007.5 1007.4 0.0
01/04:30pm 30.3 34.2 26.9 82 2.4 NW 20 24 11 13 1007.5 1007.4 0.0
01/04:00pm 30.8 35.2 27.4 82 2.5 WNW 19 20 10 11 1007.5 1007.4 0.0
01/03:30pm 31.4 36.1 27.3 79 3.0 W 17 20 9 11 1007.5 1007.4 0.0
01/03:00pm 31.5 35.8 26.7 75 3.5 W 17 20 9 11 1007.8 1007.7 0.0
01/02:30pm 30.9 35.1 27.0 80 2.8 WSW 19 20 10 11 1008.1 1008.0 0.0
01/02:00pm 31.1 35.1 26.8 78 3.1 WSW 19 20 10 11 1008.6 1008.5 0.0
01/01:30pm 31.1 35.4 26.6 77 3.2 WSW 17 20 9 11 1009.0 1008.9 0.0
01/01:00pm 31.2 35.7 26.9 78 3.1 SW 17 19 9 10 1009.3 1009.2 0.0
01/12:30pm 31.2 36.1 26.9 78 3.1 SW 15 17 8 9 1009.6 1009.5 0.0
01/12:00pm 30.7 35.0 25.5 74 3.7 SSW 13 17 7 9 1009.9 1009.8 0.0
01/11:30am 30.7 35.3 26.0 76 3.4 SSW 13 17 7 9 1010.1 1010.0 0.0
01/11:00am 30.5 35.5 26.0 77 3.2 SSW 11 15 6 8 1010.3 1010.2 0.0
01/10:30am 30.2 33.8 25.0 73 3.7 SSW 15 19 8 10 1010.3 1010.2 0.0
01/10:00am 29.4 33.1 24.5 75 3.4 SSW 13 17 7 9 1010.4 1010.3 0.0
01/09:30am 29.2 32.3 24.1 74 3.5 SSW 15 19 8 10 1010.1 1010.0 0.0
01/09:00am 29.2 32.8 25.0 78 2.9 SW 15 17 8 9 1010.0 1009.9 0.0
01/08:30am 28.7 32.1 25.3 82 2.4 SW 17 19 9 10 1009.5 1009.4 0.0
01/08:00am 28.1 31.5 24.7 82 2.4 SW 15 17 8 9 1009.4 1009.3 0.0
01/07:30am 27.5 31.7 24.7 85 2.0 SSW 11 17 6 9 1009.3 1009.2 0.0
01/07:00am 27.1 31.9 25.1 89 1.4 S 9 11 5 6 1009.3 1009.2 0.0
01/06:30am 26.7 31.5 24.5 88 1.5 SSE 7 9 4 5 1008.8 1008.7 0.0
01/06:00am 27.2 31.8 24.8 87 1.7 S 9 11 5 6 1008.5 1008.4 0.0
01/05:30am 26.9 32.1 25.1 90 1.3 SSE 7 9 4 5 1008.4 1008.3 0.0
01/05:00am 27.3 32.1 25.1 88 1.5 SSE 9 13 5 7 1008.4 1008.3 0.0
01/04:30am 27.7 31.6 24.9 85 2.0 S 13 15 7 8 1008.2 1008.1 0.0
01/04:00am 27.9 31.4 24.9 84 2.1 SSW 15 17 8 9 1008.1 1008.0 0.0
01/03:30am 28.0 31.4 24.6 82 2.4 SSW 15 19 8 10 1008.2 1008.1 0.0
01/03:00am 28.2 31.8 25.6 86 1.8 SSW 17 20 9 11 1008.3 1008.2 0.0
01/02:30am 28.2 32.8 27.1 94 0.8 SSW 17 20 9 11 1008.6 1008.5 0.0
01/02:00am 28.6 32.8 27.0 91 1.1 SW 19 22 10 12 1009.0 1008.9 0.0
01/01:30am 28.7 32.6 27.5 93 0.9 SW 22 26 12 14 1009.0 1008.9 0.0
01/01:00am 28.7 32.4 27.1 91 1.2 WSW 22 26 12 14 1009.3 1009.2 0.0
01/12:30am 28.8 33.2 27.6 93 0.9 SW 20 24 11 13 1009.4 1009.3 0.0
01/12:00am 28.9 33.0 27.7 93 0.9 SW 22 26 12 14 1009.5 1009.4 0.0
 
Date/Time
CST
Temp
°C
App
Temp
°C
Dew
Point
°C
Rel
Hum
%
Delta-T
°C
Wind Press
QNH
hPa
Press
MSL
hPa
Rain since
9am
mm
Dir  Spd
km/h
Gust
km/h
Spd
kts
Gust
kts
28/11:30pm 29.0 33.2 27.9 94 0.8 WSW 22 28 12 15 1009.5 1009.4 0.0
28/11:00pm 29.0 32.5 27.4 91 1.2 WSW 24 30 13 16 1009.3 1009.2 0.0
28/10:30pm 29.1 32.9 27.9 93 0.9 WSW 24 30 13 16 1009.1 1009.0 0.0
28/10:00pm 29.1 32.3 27.5 91 1.2 WSW 26 30 14 16 1008.9 1008.8 0.0
28/09:30pm 29.0 32.3 27.2 90 1.3 WSW 24 30 13 16 1008.6 1008.5 0.0
28/09:00pm 29.0 31.7 26.8 88 1.6 WSW 26 30 14 16 1008.0 1007.9 0.0
28/08:30pm 29.0 31.7 26.8 88 1.6 WSW 26 30 14 16 1007.8 1007.7 0.0
28/08:00pm 29.0 31.9 26.6 87 1.7 W 24 30 13 16 1007.4 1007.3 0.0
28/07:30pm 29.2 31.5 25.6 81 2.5 WSW 24 30 13 16 1007.2 1007.1 0.0
28/07:00pm 29.5 31.7 25.5 79 2.8 W 24 30 13 16 1006.8 1006.7 0.0
28/06:30pm 30.0 32.1 25.3 76 3.3 W 24 28 13 15 1006.5 1006.4 0.0
28/06:00pm 30.4 32.6 24.8 72 3.9 W 22 24 12 13 1006.2 1006.1 0.0
28/05:30pm 30.7 33.2 25.3 73 3.8 W 22 28 12 15 1006.6 1006.5 0.0
28/05:00pm 30.8 33.3 25.4 73 3.8 W 22 26 12 14 1006.5 1006.4 0.0
28/04:30pm 31.1 34.4 25.7 73 3.8 W 19 22 10 12 1006.5 1006.4 0.0
28/04:00pm 31.3 35.4 26.3 75 3.6 W 17 20 9 11 1006.8 1006.7 0.0
28/03:30pm 31.2 34.8 26.2 75 3.6 W 19 20 10 11 1007.1 1007.0 0.0
28/03:00pm 31.2 35.1 26.0 74 3.7 WSW 17 20 9 11 1007.4 1007.3 0.0
28/02:30pm 31.4 35.7 26.7 76 3.4 WSW 17 19 9 10 1007.6 1007.5 0.0
28/02:00pm 31.3 36.4 27.2 79 3.0 SW 15 17 8 9 1008.0 1007.9 0.0
28/01:30pm 31.1 36.3 26.8 78 3.1 SW 13 15 7 8 1008.4 1008.3 0.0
28/01:00pm 30.6 35.5 25.9 76 3.3 SSW 11 15 6 8 1008.7 1008.6 0.0
28/12:30pm 30.8 36.0 26.3 77 3.2 S 11 13 6 7 1009.0 1008.9 0.0
28/12:00pm 30.9 37.2 27.3 81 2.6 S 9 11 5 6 1009.1 1009.0 0.0
28/11:30am 30.8 37.1 27.4 82 2.5 S 9 11 5 6 1009.3 1009.2 0.0
28/11:00am 30.4 36.2 26.6 80 2.7 SSW 9 11 5 6 1009.3 1009.2 0.0
28/10:30am 30.4 36.3 26.8 81 2.6 SSE 9 9 5 5 1009.3 1009.2 0.0
28/10:00am 30.0 35.7 26.4 81 2.6 SSW 9 11 5 6 1009.1 1009.0 0.0
28/09:30am 30.1 36.5 27.5 86 1.9 S 9 11 5 6 1009.0 1008.9 0.0
28/09:00am 29.5 35.2 27.1 87 1.7 SSW 11 13 6 7 1008.7 1008.6 0.0
28/08:30am 29.0 35.0 27.4 91 1.2 SW 11 13 6 7 1008.5 1008.4 0.0
28/08:00am 28.4 34.8 27.5 95 0.6 S 9 13 5 7 1008.1 1008.0 0.0
28/07:30am 27.8 34.2 27.5 98 0.2 S 9 11 5 6 1007.8 1007.7 0.0
28/07:00am 27.6 33.9 27.3 98 0.2 S 9 11 5 6 1007.7 1007.6 0.0
28/06:30am 27.6 34.1 27.1 97 0.4 SSE 7 9 4 5 1007.4 1007.3 0.0
28/06:00am 27.8 33.8 26.9 95 0.6 S 9 13 5 7 1007.1 1007.0 0.0
28/05:30am 28.0 33.6 26.9 94 0.8 S 11 13 6 7 1006.9 1006.8 0.0
28/05:00am 28.2 33.5 27.0 93 0.9 SSW 13 15 7 8 1006.8 1006.7 0.0
28/04:30am 28.3 33.0 26.7 91 1.1 SSW 15 19 8 10 1006.8 1006.7 0.0
28/04:00am 28.3 33.0 26.7 91 1.1 SSW 15 19 8 10 1006.9 1006.8 0.0
28/03:30am 28.5 32.7 26.5 89 1.4 SSW 17 19 9 10 1007.1 1007.0 0.0
28/03:00am 28.5 31.9 25.9 86 1.8 SW 19 22 10 12 1007.3 1007.2 0.0
28/02:30am 28.6 32.8 27.0 91 1.2 SW 19 22 10 12 1007.7 1007.6 0.0
28/02:00am 28.6 32.7 26.4 88 1.6 SW 17 20 9 11 1007.9 1007.8 0.0
28/01:30am 28.8 32.7 26.0 85 2.0 SW 17 20 9 11 1008.2 1008.1 0.0
28/01:00am 28.8 32.4 25.6 83 2.3 SW 17 20 9 11 1008.4 1008.3 0.0
28/12:30am 28.8 33.2 26.8 89 1.4 SSW 17 20 9 11 1008.6 1008.5 0.0
28/12:00am 28.6 33.4 26.2 87 1.7 SW 13 15 7 8 1008.6 1008.5 0.0
 
Date/Time
CST
Temp
°C
App
Temp
°C
Dew
Point
°C
Rel
Hum
%
Delta-T
°C
Wind Press
QNH
hPa
Press
MSL
hPa
Rain since
9am
mm
Dir  Spd
km/h
Gust
km/h
Spd
kts
Gust
kts
27/11:30pm 28.6 32.8 25.4 83 2.3 W 13 17 7 9 1008.4 1008.3 0.0
27/11:00pm 28.6 32.6 25.0 81 2.5 W 13 15 7 8 1008.3 1008.2 0.0
27/10:30pm 28.7 31.7 24.0 76 3.3 WNW 15 15 8 8 1008.2 1008.1 0.0
27/10:00pm 28.4 32.6 25.4 84 2.1 NW 13 15 7 8 1007.8 1007.7 0.0
27/09:30pm 28.2 32.4 25.4 85 2.0 NNW 13 15 7 8 1007.4 1007.3 0.0
27/09:00pm 28.2 32.8 25.4 85 2.0 NNW 11 13 6 7 1007.0 1006.9 0.0
27/08:30pm 28.3 32.2 24.9 82 2.4 NNW 13 15 7 8 1006.4 1006.3 0.0
27/08:00pm 28.8 32.4 24.4 77 3.1 NW 13 15 7 8 1005.9 1005.8 0.0
27/07:30pm 29.4 32.8 24.7 76 3.3 WNW 15 17 8 9 1005.5 1005.4 0.0
27/07:00pm 30.2 34.1 24.8 73 3.8 NW 13 17 7 9 1005.0 1004.9 0.0
27/06:30pm 30.6 34.8 25.9 76 3.4 NNW 15 17 8 9 1004.8 1004.7 0.0
27/06:00pm 31.0 35.4 25.6 73 3.8 NW 13 17 7 9 1004.7 1004.6 0.0
27/05:30pm 30.9 34.1 24.3 68 4.6 NNW 15 19 8 10 1004.7 1004.6 0.0
27/05:00pm 30.9 34.8 24.8 70 4.3 WNW 13 15 7 8 1004.9 1004.8 0.0
27/04:30pm 30.7 34.1 24.1 68 4.6 WNW 13 15 7 8 1005.0 1004.9 0.0
27/04:00pm 30.7 34.0 23.9 67 4.7 WNW 13 15 7 8 1005.3 1005.2 0.0
27/03:30pm 30.7 34.9 24.8 71 4.2 WSW 11 13 6 7 1005.3 1005.2 0.0
27/03:00pm 30.7 34.8 24.6 70 4.3 SW 11 13 6 7 1005.5 1005.4 0.0
27/02:30pm 30.6 34.6 23.8 67 4.7 SSW 9 11 5 6 1005.8 1005.7 0.0
27/02:00pm 30.4 34.2 22.8 64 5.2 SSE 7 11 4 6 1006.0 1005.9 0.0
27/01:30pm 30.7 34.8 23.9 67 4.7 S 9 11 5 6 1006.5 1006.4 0.0
27/01:00pm 31.0 35.3 23.6 64 5.1 SSE 7 13 4 7 1006.9 1006.8 0.0

Other formats

Comma delimited format used in spreadsheet applications
http://www.bom.gov.au/fwo/IDD60801/IDD60801.94102.axf

JavaScript Object Notation format (JSON) in row-major order
http://www.bom.gov.au/fwo/IDD60801/IDD60801.94102.json

Data quality

Most of these data are generated automatically and are frequently updated. Quality checks on data are not normally performed. It is possible for incorrect values to appear. Refer to information at About Latest Weather Observations and please check the disclaimer before using these data.